createdAt,value
2018-01-03T00:00:54.115Z,5.62
2018-01-03T00:03:22.317Z,6.20
2018-01-03T00:05:50.398Z,5.15
2018-01-03T00:08:18.587Z,6.10
2018-01-03T00:10:46.885Z,6.60
2018-01-03T00:13:15.187Z,6.10
2018-01-03T00:15:43.480Z,6.62
2018-01-03T00:18:11.679Z,6.15
2018-01-03T00:20:39.973Z,6.00
2018-01-03T00:23:08.266Z,6.80
2018-01-03T00:25:36.463Z,6.87
2018-01-03T00:28:04.554Z,7.00
2018-01-03T00:30:32.757Z,9.45
2018-01-03T00:33:00.950Z,8.45
2018-01-03T00:35:29.139Z,10.20
2018-01-03T00:37:57.237Z,8.43
2018-01-03T00:40:25.354Z,7.03
2018-01-03T00:42:53.526Z,8.20
2018-01-03T00:45:21.705Z,7.57
2018-01-03T00:47:49.901Z,10.30
2018-01-03T00:50:18.313Z,11.95
2018-01-03T00:52:46.710Z,11.77
2018-01-03T00:55:15.003Z,14.25
2018-01-03T00:57:43.193Z,11.12
2018-01-03T01:00:11.602Z,12.63
2018-01-03T01:02:39.901Z,12.13
2018-01-03T01:05:08.201Z,10.27
2018-01-03T01:07:36.388Z,8.75
2018-01-03T01:10:04.470Z,7.05
2018-01-03T01:12:32.671Z,8.00
2018-01-03T01:15:00.863Z,8.88
2018-01-03T01:17:29.059Z,8.50
2018-01-03T01:19:57.158Z,7.97
2018-01-03T01:22:25.198Z,7.35
2018-01-03T01:24:53.443Z,7.82
2018-01-03T01:27:21.635Z,7.47
2018-01-03T01:29:49.935Z,6.35
2018-01-03T01:32:18.327Z,7.03
2018-01-03T01:34:46.633Z,6.93
2018-01-03T01:37:14.920Z,7.43
2018-01-03T01:39:43.335Z,7.18
2018-01-03T01:42:11.620Z,6.45
2018-01-03T01:44:40.014Z,5.95
2018-01-03T01:47:08.202Z,6.55
2018-01-03T01:49:36.310Z,6.22
2018-01-03T01:52:04.503Z,7.37
2018-01-03T01:54:32.587Z,6.22
2018-01-03T01:57:00.776Z,6.45
2018-01-03T01:59:28.882Z,7.55
2018-01-03T02:01:57.058Z,6.75
2018-01-03T02:04:25.063Z,6.80
2018-01-03T02:06:53.243Z,6.10
2018-01-03T02:09:21.562Z,6.85
2018-01-03T02:11:50.048Z,7.32
2018-01-03T02:14:18.256Z,6.25
2018-01-03T02:16:46.536Z,5.97
2018-01-03T02:19:14.839Z,6.15
2018-01-03T02:21:43.144Z,6.65
2018-01-03T02:24:11.534Z,8.02
2018-01-03T02:26:39.735Z,6.32
2018-01-03T02:29:07.817Z,6.80
2018-01-03T02:31:36.020Z,6.85
2018-01-03T02:34:04.117Z,6.03
2018-01-03T02:36:32.303Z,6.65
2018-01-03T02:39:00.497Z,6.40
2018-01-03T02:41:28.690Z,5.40
2018-01-03T02:43:56.780Z,5.78
2018-01-03T02:46:24.981Z,7.30
2018-01-03T02:48:53.173Z,6.20
2018-01-03T02:51:21.475Z,5.50
2018-01-03T02:53:49.773Z,6.25
2018-01-03T02:56:18.064Z,5.65
2018-01-03T02:58:46.253Z,6.87
2018-01-03T03:01:14.555Z,6.20
2018-01-03T03:03:42.852Z,6.75
2018-01-03T03:06:11.151Z,5.10
2018-01-03T03:08:39.244Z,5.80
2018-01-03T03:11:07.426Z,6.35
2018-01-03T03:13:35.515Z,6.00
2018-01-03T03:16:03.621Z,4.50
2018-01-03T03:18:31.925Z,5.47
2018-01-03T03:21:01.019Z,5.70
2018-01-03T03:23:29.121Z,6.18
2018-01-03T03:25:57.205Z,6.15
2018-01-03T03:28:25.307Z,5.45
2018-01-03T03:30:53.595Z,7.20
2018-01-03T03:33:21.999Z,5.40
2018-01-03T03:35:50.297Z,6.62
2018-01-03T03:38:18.581Z,5.65
2018-01-03T03:40:46.878Z,5.82
2018-01-03T03:43:15.189Z,5.43
2018-01-03T03:45:43.590Z,6.18
2018-01-03T03:48:11.786Z,5.00
2018-01-03T03:50:39.963Z,4.80
2018-01-03T03:53:08.166Z,5.18
2018-01-03T03:55:36.361Z,5.03
2018-01-03T03:58:04.561Z,4.80
2018-01-03T04:00:32.640Z,4.97
2018-01-03T04:03:00.835Z,4.35
2018-01-03T04:05:28.938Z,5.68
2018-01-03T04:07:57.127Z,6.97
2018-01-03T04:10:25.175Z,5.65
2018-01-03T04:12:53.509Z,5.30
2018-01-03T04:15:21.916Z,5.60
2018-01-03T04:17:50.220Z,5.28
2018-01-03T04:20:18.613Z,6.20
2018-01-03T04:22:46.913Z,6.25
2018-01-03T04:25:15.108Z,6.70
2018-01-03T04:27:43.195Z,5.50
2018-01-03T04:30:11.292Z,5.68
2018-01-03T04:32:39.480Z,6.43
2018-01-03T04:35:07.568Z,5.40
2018-01-03T04:37:35.774Z,6.78
2018-01-03T04:40:03.961Z,5.00
2018-01-03T04:42:32.162Z,6.40
2018-01-03T04:45:00.251Z,5.10
2018-01-03T04:47:28.440Z,6.20
2018-01-03T04:49:56.635Z,6.85
2018-01-03T04:52:24.865Z,4.78
2018-01-03T04:54:53.635Z,4.15
2018-01-03T04:57:21.933Z,4.68
2018-01-03T04:59:50.242Z,5.07
2018-01-03T05:02:18.634Z,5.65
2018-01-03T05:04:47.738Z,5.62
2018-01-03T05:07:15.940Z,4.95
2018-01-03T05:09:44.026Z,5.72
2018-01-03T05:12:12.226Z,5.15
2018-01-03T05:14:40.219Z,6.50
2018-01-03T05:17:08.424Z,5.65
2018-01-03T05:19:36.606Z,4.93
2018-01-03T05:22:04.802Z,5.78
2018-01-03T05:24:32.995Z,5.20
2018-01-03T05:27:01.181Z,6.10
2018-01-03T05:29:29.284Z,4.90
2018-01-03T05:31:57.466Z,5.20
2018-01-03T05:34:25.675Z,4.05
2018-01-03T05:36:53.863Z,5.35
2018-01-03T05:39:23.189Z,7.62
2018-01-03T05:41:51.681Z,4.80
2018-01-03T05:44:19.977Z,5.72
2018-01-03T05:46:48.077Z,5.80
2018-01-03T05:49:16.276Z,5.80
2018-01-03T05:51:44.369Z,5.57
2018-01-03T05:54:12.559Z,5.00
2018-01-03T05:56:40.637Z,5.87
2018-01-03T05:59:08.840Z,5.18
2018-01-03T06:01:36.931Z,6.78
2018-01-03T06:04:05.122Z,5.75
2018-01-03T06:06:33.321Z,4.95
2018-01-03T06:09:01.626Z,5.05
2018-01-03T06:11:30.027Z,5.60
2018-01-03T06:13:58.310Z,5.70
2018-01-03T06:16:26.624Z,5.72
2018-01-03T06:18:54.909Z,6.22
2018-01-03T06:21:23.112Z,5.82
2018-01-03T06:23:51.398Z,6.65
2018-01-03T06:26:19.588Z,6.35
2018-01-03T06:28:47.786Z,6.80
2018-01-03T06:31:15.880Z,5.37
2018-01-03T06:33:44.076Z,5.75
2018-01-03T06:36:12.156Z,6.15
2018-01-03T06:38:40.364Z,6.97
2018-01-03T06:41:08.450Z,5.75
2018-01-03T06:43:36.647Z,6.47
2018-01-03T06:46:04.841Z,6.82
2018-01-03T06:48:33.041Z,7.15
2018-01-03T06:51:01.324Z,6.25
2018-01-03T06:53:29.633Z,5.82
2018-01-03T06:55:57.757Z,6.40
2018-01-03T06:58:26.026Z,6.82
2018-01-03T07:00:54.314Z,5.87
2018-01-03T07:03:22.613Z,5.47
2018-01-03T07:05:51.636Z,4.72
2018-01-03T07:08:19.819Z,5.43
2018-01-03T07:10:47.911Z,6.47
2018-01-03T07:13:16.105Z,7.25
2018-01-03T07:15:44.254Z,6.25
2018-01-03T07:18:12.494Z,6.22
2018-01-03T07:20:40.584Z,6.65
2018-01-03T07:23:08.767Z,7.18
2018-01-03T07:25:37.579Z,5.95
2018-01-03T07:28:05.789Z,6.32
2018-01-03T07:30:34.080Z,6.68
2018-01-03T07:33:02.387Z,6.60
2018-01-03T07:35:30.491Z,6.22
2018-01-03T07:37:58.774Z,6.25
2018-01-03T07:40:27.060Z,6.82
2018-01-03T07:42:55.375Z,5.90
2018-01-03T07:45:23.662Z,5.15
2018-01-03T07:47:51.840Z,6.15
2018-01-03T07:50:19.936Z,5.90
2018-01-03T07:52:48.037Z,7.72
2018-01-03T07:55:17.252Z,6.10
2018-01-03T07:57:45.342Z,6.75
2018-01-03T08:00:13.534Z,5.68
2018-01-03T08:02:41.734Z,7.00
2018-01-03T08:05:09.915Z,6.62
2018-01-03T08:07:38.019Z,6.75
2018-01-03T08:10:06.218Z,6.53
2018-01-03T08:12:34.409Z,7.12
2018-01-03T08:15:02.693Z,6.25
2018-01-03T08:17:30.800Z,6.87
2018-01-03T08:19:59.198Z,7.20
2018-01-03T08:22:27.482Z,5.75
2018-01-03T08:24:55.781Z,6.90
2018-01-03T08:27:23.982Z,6.87
2018-01-03T08:29:52.168Z,7.20
2018-01-03T08:32:20.264Z,8.15
2018-01-03T08:34:48.454Z,9.27
2018-01-03T08:37:16.561Z,10.15
2018-01-03T08:39:44.761Z,10.18
2018-01-03T08:42:12.841Z,7.62
2018-01-03T08:44:41.042Z,6.90
2018-01-03T08:47:09.124Z,7.93
2018-01-03T08:49:37.428Z,7.45
2018-01-03T08:52:05.632Z,7.87
2018-01-03T08:54:33.923Z,6.40
2018-01-03T08:57:01.996Z,5.03
2018-01-03T08:59:30.232Z,6.10
2018-01-03T09:01:58.366Z,6.00
2018-01-03T09:04:26.585Z,6.47
2018-01-03T09:06:54.894Z,6.40
2018-01-03T09:09:23.086Z,6.05
2018-01-03T09:11:51.210Z,6.62
2018-01-03T09:14:19.477Z,6.10
2018-01-03T09:16:47.570Z,7.12
2018-01-03T09:19:15.754Z,7.22
2018-01-03T09:21:43.854Z,6.85
2018-01-03T09:24:12.051Z,5.80
2018-01-03T09:26:40.137Z,5.10
2018-01-03T09:29:08.435Z,5.75
2018-01-03T09:31:36.734Z,8.20
2018-01-03T09:34:05.039Z,8.15
2018-01-03T09:36:33.259Z,6.37
2018-01-03T09:39:01.620Z,7.72
2018-01-03T09:41:29.814Z,7.35
2018-01-03T09:43:57.973Z,8.10
2018-01-03T09:46:26.104Z,6.87
2018-01-03T09:48:54.297Z,7.82
2018-01-03T09:51:22.485Z,6.32
2018-01-03T09:53:50.676Z,7.07
2018-01-03T09:56:20.023Z,6.10
2018-01-03T09:58:48.409Z,6.47
2018-01-03T10:01:16.598Z,6.12
2018-01-03T10:03:44.782Z,6.00
2018-01-03T10:06:12.878Z,5.97
2018-01-03T10:08:40.984Z,7.10
2018-01-03T10:11:09.370Z,6.95
2018-01-03T10:13:37.670Z,7.68
2018-01-03T10:16:05.975Z,7.93
2018-01-03T10:18:34.161Z,7.93
2018-01-03T10:21:02.465Z,7.18
2018-01-03T10:23:30.708Z,7.32
2018-01-03T10:25:58.877Z,7.80
2018-01-03T10:28:27.250Z,8.45
2018-01-03T10:30:55.435Z,7.68
2018-01-03T10:33:23.535Z,5.97
2018-01-03T10:35:51.721Z,7.05
2018-01-03T10:38:19.815Z,6.40
2018-01-03T10:40:48.018Z,6.35
2018-01-03T10:43:16.106Z,7.20
2018-01-03T10:45:44.308Z,5.78
2018-01-03T10:48:12.606Z,4.60
2018-01-03T10:50:40.901Z,5.15
2018-01-03T10:53:09.047Z,4.45
2018-01-03T10:55:37.387Z,5.45
2018-01-03T10:58:05.687Z,5.30
2018-01-03T11:00:34.072Z,5.87
2018-01-03T11:03:02.370Z,5.85
2018-01-03T11:05:30.611Z,5.65
2018-01-03T11:07:58.765Z,5.37
2018-01-03T11:10:27.060Z,4.70
2018-01-03T11:12:55.358Z,4.72
2018-01-03T11:15:23.558Z,5.18
2018-01-03T11:17:51.850Z,5.37
2018-01-03T11:20:20.250Z,5.15
2018-01-03T11:22:48.342Z,5.65
2018-01-03T11:25:16.539Z,9.32
2018-01-03T11:27:44.667Z,9.05
2018-01-03T11:30:12.818Z,10.02
2018-01-03T11:32:41.135Z,9.60
2018-01-03T11:35:09.416Z,10.40
2018-01-03T11:37:37.715Z,9.75
2018-01-03T11:40:06.066Z,9.20
2018-01-03T11:42:34.221Z,8.73
2018-01-03T11:45:02.508Z,9.40
2018-01-03T11:47:31.008Z,10.13
2018-01-03T12:05:31.023Z,10.25
2018-01-03T12:17:39.315Z,8.82
2018-01-03T12:20:07.606Z,8.52
2018-01-03T12:22:35.677Z,9.90
2018-01-03T12:25:04.076Z,9.52
2018-01-03T12:27:32.388Z,11.00
2018-01-03T12:30:00.591Z,9.43
2018-01-03T12:32:28.783Z,8.32
2018-01-03T12:34:56.863Z,8.30
2018-01-03T12:37:25.063Z,9.52
2018-01-03T12:39:53.243Z,9.30
2018-01-03T12:42:21.446Z,7.82
2018-01-03T12:44:49.631Z,8.88
2018-01-03T12:47:17.878Z,10.00
2018-01-03T12:49:45.922Z,9.90
2018-01-03T12:52:14.329Z,9.55
2018-01-03T12:54:42.459Z,9.07
2018-01-03T12:57:10.603Z,8.77
2018-01-03T12:59:38.918Z,8.50
2018-01-03T13:02:07.105Z,9.85
2018-01-03T13:04:35.192Z,9.30
2018-01-03T13:07:03.403Z,8.55
2018-01-03T13:09:31.489Z,9.65
2018-01-03T13:11:59.682Z,8.65
2018-01-03T13:14:27.878Z,7.70
2018-01-03T13:16:56.059Z,8.88
2018-01-03T13:19:24.147Z,8.75
2018-01-03T13:21:52.354Z,8.13
2018-01-03T13:24:20.546Z,6.93
2018-01-03T13:26:48.738Z,8.52
2018-01-03T13:29:16.738Z,8.18
2018-01-03T13:31:45.122Z,7.80
2018-01-03T13:34:13.521Z,6.95
2018-01-03T13:36:41.821Z,7.90
2018-01-03T13:39:09.918Z,7.85
2018-01-03T13:41:38.322Z,6.75
2018-01-03T13:44:06.605Z,8.10
2018-01-03T13:46:34.799Z,8.57
2018-01-03T13:49:02.898Z,7.37
2018-01-03T13:51:31.100Z,7.60
2018-01-03T13:53:59.291Z,7.57
2018-01-03T13:56:27.575Z,7.12
2018-01-03T13:58:55.667Z,8.77
2018-01-03T14:01:23.870Z,11.80
2018-01-03T14:03:51.970Z,11.95
2018-01-03T14:06:20.159Z,9.95
2018-01-03T14:08:48.254Z,11.63
2018-01-03T14:11:16.638Z,10.95
2018-01-03T14:13:44.958Z,11.77
2018-01-03T14:16:13.133Z,11.55
2018-01-03T14:18:41.650Z,11.15
2018-01-03T14:21:10.049Z,14.55
2018-01-03T14:23:38.230Z,12.65
2018-01-03T14:26:06.441Z,10.60
2018-01-03T14:28:34.522Z,11.60
2018-01-03T14:31:02.719Z,10.90
2018-01-03T14:33:30.906Z,10.27
2018-01-03T14:35:59.099Z,11.18
2018-01-03T14:38:27.191Z,11.10
2018-01-03T14:40:55.283Z,15.70
2018-01-03T14:43:24.196Z,14.32
2018-01-03T14:45:52.396Z,16.05
2018-01-03T14:48:20.482Z,17.48
2018-01-03T14:50:48.675Z,13.50
2018-01-03T14:53:16.974Z,14.18
2018-01-03T14:55:45.274Z,13.20
2018-01-03T14:58:13.577Z,13.40
2018-01-03T15:00:41.656Z,11.98
2018-01-03T15:03:09.967Z,12.15
2018-01-03T15:05:38.056Z,11.73
2018-01-03T15:08:06.143Z,8.52
2018-01-03T15:10:34.243Z,3.40
2018-01-03T15:13:02.419Z,3.55
2018-01-03T15:15:30.630Z,3.03
2018-01-03T15:17:58.722Z,3.20
2018-01-03T15:20:26.916Z,3.35
2018-01-03T15:22:55.103Z,3.40
2018-01-03T15:25:23.198Z,3.87
2018-01-03T15:27:51.604Z,4.10
2018-01-03T15:30:19.782Z,3.90
2018-01-03T15:32:47.992Z,2.87
2018-01-03T15:35:16.170Z,3.40
2018-01-03T15:37:44.376Z,3.22
2018-01-03T15:40:12.460Z,22.58
2018-01-03T15:42:40.768Z,16.10
2018-01-03T15:45:08.850Z,12.00
2018-01-03T15:47:37.448Z,10.93
2018-01-03T15:50:05.664Z,3.70
2018-01-03T15:52:34.052Z,2.17
2018-01-03T15:55:02.245Z,2.10
2018-01-03T15:57:30.342Z,2.72
2018-01-03T15:59:58.627Z,3.58
2018-01-03T16:02:26.874Z,3.70
2018-01-03T16:04:55.019Z,3.97
2018-01-03T16:07:23.223Z,3.62
2018-01-03T16:09:51.336Z,3.15
2018-01-03T16:12:19.599Z,4.40
2018-01-03T16:14:47.908Z,4.90
2018-01-03T16:17:16.206Z,5.85
2018-01-03T16:19:44.295Z,4.95
2018-01-03T16:22:12.479Z,4.68
2018-01-03T16:24:40.586Z,4.07
2018-01-03T16:27:08.774Z,4.82
2018-01-03T16:29:36.790Z,5.20
2018-01-03T16:32:05.070Z,4.80
2018-01-03T16:34:33.247Z,4.50
2018-01-03T16:37:01.456Z,4.50
2018-01-03T16:39:29.640Z,5.40
2018-01-03T16:41:57.839Z,4.30
2018-01-03T16:44:25.928Z,4.00
2018-01-03T16:46:54.117Z,3.90
2018-01-03T16:49:22.319Z,4.75
2018-01-03T16:51:51.845Z,4.30
2018-01-03T16:54:20.045Z,4.20
2018-01-03T16:56:48.324Z,5.03
2018-01-03T16:59:16.638Z,5.37
2018-01-03T17:01:45.038Z,6.10
2018-01-03T17:04:13.318Z,4.80
2018-01-03T17:06:41.523Z,4.78
2018-01-03T17:09:09.579Z,4.72
2018-01-03T17:11:37.700Z,4.45
2018-01-03T17:14:05.909Z,4.37
2018-01-03T17:16:34.086Z,4.45
2018-01-03T17:19:02.280Z,4.75
2018-01-03T17:21:30.476Z,5.50
2018-01-03T17:23:58.679Z,3.90
2018-01-03T17:26:26.875Z,4.25
2018-01-03T17:28:55.056Z,3.70
2018-01-03T17:31:23.159Z,3.90
2018-01-03T17:33:51.339Z,4.55
2018-01-03T17:36:19.540Z,3.08
2018-01-03T17:38:47.860Z,2.60
2018-01-03T17:41:16.047Z,2.85
2018-01-03T17:43:44.219Z,4.55
2018-01-03T17:46:12.318Z,4.20
2018-01-03T17:48:40.609Z,4.07
2018-01-03T17:51:08.708Z,4.57
2018-01-03T17:53:36.768Z,5.43
2018-01-03T17:56:04.888Z,4.85
2018-01-03T17:58:33.189Z,5.40
2018-01-03T18:01:01.394Z,2.97
2018-01-03T18:03:29.574Z,3.67
2018-01-03T18:05:57.680Z,2.85
2018-01-03T18:08:25.874Z,4.10
2018-01-03T18:10:54.174Z,4.00
2018-01-03T18:13:22.365Z,4.32
2018-01-03T18:15:50.545Z,4.50
2018-01-03T18:18:18.744Z,4.35
2018-01-03T18:20:46.945Z,3.72
2018-01-03T18:23:15.125Z,2.87
2018-01-03T18:25:43.227Z,4.18
2018-01-03T18:28:11.526Z,3.50
2018-01-03T18:30:39.605Z,4.30
2018-01-03T18:33:07.804Z,4.82
2018-01-03T18:35:35.905Z,7.10
2018-01-03T18:38:03.911Z,4.40
2018-01-03T18:40:31.985Z,3.08
2018-01-03T18:43:00.185Z,2.50
2018-01-03T18:45:28.365Z,2.92
2018-01-03T18:47:56.564Z,3.80
2018-01-03T18:50:24.766Z,3.30
2018-01-03T18:52:52.945Z,3.40
2018-01-03T18:55:21.345Z,3.03
2018-01-03T18:57:49.445Z,3.85
2018-01-03T19:00:17.525Z,3.50
2018-01-03T19:02:45.745Z,3.83
2018-01-03T19:05:13.925Z,4.05
2018-01-03T19:07:42.126Z,4.15
2018-01-03T19:10:10.311Z,5.18
2018-01-03T19:12:38.411Z,4.55
2018-01-03T19:15:06.611Z,5.20
2018-01-03T19:17:34.791Z,6.10
2018-01-03T19:20:02.991Z,8.40
2018-01-03T19:22:30.991Z,8.55
2018-01-03T19:24:59.271Z,12.27
2018-01-03T19:27:27.371Z,12.37
2018-01-03T19:29:55.572Z,12.23
2018-01-03T19:32:23.656Z,8.95
2018-01-03T19:34:51.842Z,10.15
2018-01-03T19:37:20.139Z,11.12
2018-01-03T19:39:48.337Z,10.45
2018-01-03T19:42:16.437Z,12.02
2018-01-03T19:44:44.645Z,11.05
2018-01-03T19:47:12.937Z,31.50
2018-01-03T19:49:41.117Z,37.08
2018-01-03T19:52:09.317Z,16.08
2018-01-03T19:54:37.507Z,10.73
2018-01-03T19:57:05.605Z,8.98
2018-01-03T19:59:33.706Z,7.65
2018-01-03T20:02:01.885Z,8.40
2018-01-03T20:04:30.094Z,8.88
2018-01-03T20:06:58.185Z,11.82
2018-01-03T20:09:26.369Z,25.85
2018-01-03T20:11:54.473Z,40.83
2018-01-03T20:14:22.645Z,67.15
2018-01-03T20:16:50.757Z,43.08
2018-01-03T20:19:18.938Z,50.03
2018-01-03T20:21:47.038Z,50.08
2018-01-03T20:24:15.218Z,107.40
2018-01-03T20:26:43.517Z,96.32
2018-01-03T20:29:11.718Z,46.37
2018-01-03T20:31:39.922Z,36.90
2018-01-03T20:34:08.097Z,32.50
2018-01-03T20:36:36.198Z,38.90
2018-01-03T20:39:04.384Z,28.55
2018-01-03T20:41:32.483Z,21.50
2018-01-03T20:44:00.681Z,19.92
2018-01-03T20:46:28.864Z,16.48
2018-01-03T20:48:57.063Z,15.40
2018-01-03T20:51:25.183Z,13.45
2018-01-03T20:53:53.454Z,17.48
2018-01-03T20:56:21.756Z,46.78
2018-01-03T20:58:49.938Z,24.65
2018-01-03T21:01:18.041Z,21.87
2018-01-03T21:03:46.229Z,21.58
2018-01-03T21:06:14.338Z,19.25
2018-01-03T21:08:42.527Z,19.25
2018-01-03T21:11:10.720Z,17.58
2018-01-03T21:13:38.802Z,15.95
2018-01-03T21:16:07.109Z,16.40
2018-01-03T21:18:35.195Z,15.90
2018-01-03T21:21:03.394Z,16.33
2018-01-03T21:23:31.780Z,14.68
2018-01-03T21:26:00.094Z,11.93
2018-01-03T21:28:28.273Z,9.30
2018-01-03T21:30:56.476Z,11.95
2018-01-03T21:33:24.608Z,14.27
2018-01-03T21:35:52.875Z,14.02
2018-01-03T21:38:20.974Z,12.73
2018-01-03T21:40:49.358Z,12.95
2018-01-03T21:43:17.558Z,13.68
2018-01-03T21:45:45.740Z,15.68
2018-01-03T21:48:13.939Z,13.35
2018-01-03T21:50:42.144Z,14.57
2018-01-03T21:53:10.326Z,16.17
2018-01-03T21:55:38.444Z,14.98
2018-01-03T21:58:06.714Z,14.75
2018-01-03T22:00:34.922Z,14.40
2018-01-03T22:03:03.200Z,14.18
2018-01-03T22:05:31.508Z,13.82
2018-01-03T22:07:59.695Z,18.73
2018-01-03T22:10:27.997Z,19.12
2018-01-03T22:12:56.393Z,16.15
2018-01-03T22:15:24.548Z,17.90
2018-01-03T22:17:52.582Z,18.58
2018-01-03T22:20:20.784Z,17.10
2018-01-03T22:22:48.866Z,16.60
2018-01-03T22:25:16.957Z,19.42
2018-01-03T22:27:45.042Z,15.77
2018-01-03T22:30:13.139Z,13.75
2018-01-03T22:32:41.335Z,12.55
2018-01-03T22:35:09.439Z,15.40
2018-01-03T22:37:37.517Z,14.95
2018-01-03T22:40:05.815Z,16.70
2018-01-03T22:42:33.898Z,16.33
2018-01-03T22:45:02.008Z,15.93
2018-01-03T22:47:30.094Z,14.55
2018-01-03T22:49:58.377Z,13.80
2018-01-03T22:52:26.679Z,13.93
2018-01-03T22:54:54.978Z,12.52
2018-01-03T22:57:23.181Z,13.98
2018-01-03T22:59:51.274Z,12.50
2018-01-03T23:02:19.253Z,12.30
2018-01-03T23:04:47.448Z,12.10
2018-01-03T23:07:15.658Z,12.80
2018-01-03T23:09:43.837Z,11.32
2018-01-03T23:12:11.922Z,10.77
2018-01-03T23:14:40.118Z,11.07
2018-01-03T23:17:08.226Z,10.18
2018-01-03T23:19:36.717Z,10.38
2018-01-03T23:22:05.016Z,10.65
2018-01-03T23:24:33.315Z,10.57
2018-01-03T23:27:01.601Z,10.93
2018-01-03T23:29:30.527Z,10.07
2018-01-03T23:31:58.706Z,11.35
2018-01-03T23:34:27.116Z,11.68
2018-01-03T23:36:55.316Z,13.07
2018-01-03T23:39:23.515Z,13.23
2018-01-03T23:41:51.560Z,12.50
2018-01-03T23:44:19.648Z,13.13
2018-01-03T23:46:47.781Z,12.63
2018-01-03T23:49:15.875Z,12.50
2018-01-03T23:51:44.068Z,13.23
2018-01-03T23:54:12.156Z,12.30
2018-01-03T23:56:40.437Z,13.23
2018-01-03T23:59:08.755Z,13.25
